Time;durP1;ratioP1;P1;durP2;ratioP2;P2;SDS_P1;SDS_P2;PMS_P1;PMS_P2;Temp;Humidity;BMP_temperature;BMP_pressure;BME280_temperature;BME280_humidity;BME280_pressure;Samples;Min_cycle;Max_cycle;Signal;HPM_P1;HPM_P2
2021/04/06 00:00:46;;;;;;;;;;;21.10;35.10;;;;;;473074;252;2201;-45
2021/04/06 00:02:47;;;;;;;;;;;21.10;35.20;;;;;;472684;252;1280;-45
2021/04/06 00:04:49;;;;;;;;;;;21.10;35.10;;;;;;472714;252;1084;-45
2021/04/06 00:06:50;;;;;;;;;;;21.10;35.10;;;;;;472942;249;1138;-45
2021/04/06 00:08:51;;;;;;;;;;;21.10;35.10;;;;;;472702;252;1091;-45
2021/04/06 00:10:53;;;;;;;;;;;21.10;35.10;;;;;;472906;252;1169;-45
2021/04/06 00:12:54;;;;;;;;;;;21.10;35.10;;;;;;472939;252;1037;-45
2021/04/06 00:14:55;;;;;;;;;;;21.10;35.20;;;;;;472687;252;1061;-45
2021/04/06 00:16:56;;;;;;;;;;;21.10;35.10;;;;;;472705;252;1134;-45
2021/04/06 00:18:58;;;;;;;;;;;21.10;35.10;;;;;;472689;252;1078;-45
2021/04/06 00:20:59;;;;;;;;;;;21.20;35.10;;;;;;472782;252;2201;-45
2021/04/06 00:23:00;;;;;;;;;;;21.10;35.10;;;;;;472788;252;1156;-44
2021/04/06 00:25:01;;;;;;;;;;;21.10;35.10;;;;;;472873;252;1184;-45
2021/04/06 00:27:03;;;;;;;;;;;21.10;35.10;;;;;;472642;252;1135;-45
2021/04/06 00:29:04;;;;;;;;;;;21.10;35.10;;;;;;472798;252;1104;-45
2021/04/06 00:31:05;;;;;;;;;;;21.10;35.10;;;;;;472723;252;1342;-45
2021/04/06 00:33:07;;;;;;;;;;;21.20;35.20;;;;;;472684;252;1272;-45
2021/04/06 00:35:08;;;;;;;;;;;21.20;35.10;;;;;;473018;252;1115;-44
2021/04/06 00:37:09;;;;;;;;;;;21.20;35.10;;;;;;472659;252;1222;-45
2021/04/06 00:39:10;;;;;;;;;;;21.20;35.10;;;;;;472995;252;1055;-45
2021/04/06 00:41:12;;;;;;;;;;;21.20;35.10;;;;;;472732;252;2147;-45
2021/04/06 00:43:13;;;;;;;;;;;21.20;35.10;;;;;;472741;252;1058;-45
2021/04/06 00:45:14;;;;;;;;;;;21.20;35.10;;;;;;472722;252;1049;-45
2021/04/06 00:47:15;;;;;;;;;;;21.20;35.10;;;;;;472718;252;1216;-45
2021/04/06 00:49:17;;;;;;;;;;;21.20;35.10;;;;;;472700;252;1096;-45
2021/04/06 00:51:19;;;;;;;;;;;21.20;35.00;;;;;;472664;249;1145;-44
2021/04/06 00:53:20;;;;;;;;;;;21.20;35.10;;;;;;472729;252;1096;-45
2021/04/06 00:55:21;;;;;;;;;;;21.20;35.10;;;;;;472949;252;1178;-45
2021/04/06 00:57:23;;;;;;;;;;;21.20;35.10;;;;;;472761;252;1348;-45
2021/04/06 00:59:24;;;;;;;;;;;21.20;35.10;;;;;;472786;252;1174;-45
2021/04/06 01:01:25;;;;;;;;;;;21.20;35.10;;;;;;472675;252;2182;-45
2021/04/06 01:03:27;;;;;;;;;;;21.20;35.00;;;;;;472847;252;1256;-45
2021/04/06 01:05:28;;;;;;;;;;;21.20;35.10;;;;;;472798;252;1040;-45
2021/04/06 01:07:29;;;;;;;;;;;21.20;35.00;;;;;;472902;252;1073;-45
2021/04/06 01:09:30;;;;;;;;;;;21.20;35.10;;;;;;472668;252;1074;-45
2021/04/06 01:11:32;;;;;;;;;;;21.20;35.10;;;;;;472608;252;1205;-45
2021/04/06 01:13:33;;;;;;;;;;;21.20;35.10;;;;;;472884;252;1080;-45
2021/04/06 01:15:34;;;;;;;;;;;21.20;35.10;;;;;;472741;252;1091;-45
2021/04/06 01:17:35;;;;;;;;;;;21.20;35.10;;;;;;472709;252;1141;-45
2021/04/06 01:19:37;;;;;;;;;;;21.20;35.10;;;;;;472974;252;1075;-45
2021/04/06 01:21:38;;;;;;;;;;;21.20;35.10;;;;;;472601;252;2186;-45
2021/04/06 01:23:39;;;;;;;;;;;21.20;35.10;;;;;;472660;252;1059;-45
2021/04/06 01:25:41;;;;;;;;;;;21.20;35.10;;;;;;472699;252;1325;-45
2021/04/06 01:27:42;;;;;;;;;;;21.20;35.10;;;;;;472669;252;1217;-45
2021/04/06 01:29:43;;;;;;;;;;;21.20;35.10;;;;;;473113;252;1020;-44
2021/04/06 01:31:44;;;;;;;;;;;21.20;35.10;;;;;;472743;252;1030;-44
2021/04/06 01:33:46;;;;;;;;;;;21.20;35.00;;;;;;472686;252;1019;-45
2021/04/06 01:35:47;;;;;;;;;;;21.20;35.00;;;;;;472696;252;1098;-45
2021/04/06 01:37:48;;;;;;;;;;;21.20;35.10;;;;;;472763;252;1037;-44
2021/04/06 01:39:51;;;;;;;;;;;21.20;35.00;;;;;;472844;252;1069;-45
2021/04/06 01:41:55;;;;;;;;;;;21.20;35.10;;;;;;472641;252;1511;-44
2021/04/06 01:43:52;;;;;;;;;;;21.20;35.10;;;;;;472488;252;1562;-45
2021/04/06 01:45:54;;;;;;;;;;;21.20;35.00;;;;;;472815;252;996;-45
2021/04/06 01:47:55;;;;;;;;;;;21.20;35.00;;;;;;472723;252;1062;-45
2021/04/06 01:49:56;;;;;;;;;;;21.20;35.00;;;;;;473206;252;1097;-45
2021/04/06 01:51:59;;;;;;;;;;;21.20;35.10;;;;;;472706;252;1255;-45
2021/04/06 01:54:00;;;;;;;;;;;21.30;34.90;;;;;;472762;252;1085;-45
2021/04/06 01:56:04;;;;;;;;;;;21.20;35.20;;;;;;472765;252;1351;-44
2021/04/06 01:58:02;;;;;;;;;;;20.60;36.00;;;;;;472594;252;1459;-44
2021/04/06 02:00:09;;;;;;;;;;;20.00;37.10;;;;;;472726;252;2155;-45
2021/04/06 02:02:05;;;;;;;;;;;19.60;38.00;;;;;;472611;251;1333;-44
2021/04/06 02:04:07;;;;;;;;;;;19.30;38.70;;;;;;472779;252;1102;-44
2021/04/06 02:06:09;;;;;;;;;;;19.00;39.10;;;;;;472653;252;1422;-44
2021/04/06 02:08:10;;;;;;;;;;;18.90;39.50;;;;;;472644;252;1935;-45
2021/04/06 02:10:10;;;;;;;;;;;18.70;39.70;;;;;;472690;252;1607;-44
2021/04/06 02:12:11;;;;;;;;;;;18.70;40.00;;;;;;472670;252;1307;-44
2021/04/06 02:14:13;;;;;;;;;;;18.50;40.20;;;;;;472981;252;1096;-44
2021/04/06 02:16:14;;;;;;;;;;;18.50;40.40;;;;;;472695;252;1080;-44
2021/04/06 02:18:15;;;;;;;;;;;18.40;40.40;;;;;;472837;252;1196;-44
2021/04/06 02:20:17;;;;;;;;;;;18.40;40.50;;;;;;472697;252;2219;-44
2021/04/06 02:22:18;;;;;;;;;;;18.30;40.60;;;;;;472701;252;1120;-44
2021/04/06 02:24:19;;;;;;;;;;;18.20;40.70;;;;;;472682;252;1102;-44
2021/04/06 02:26:22;;;;;;;;;;;18.20;40.80;;;;;;473125;251;1182;-44
2021/04/06 02:28:22;;;;;;;;;;;18.10;40.90;;;;;;472804;251;1670;-44
2021/04/06 02:30:29;;;;;;;;;;;18.10;41.00;;;;;;472722;252;1195;-44
2021/04/06 02:32:25;;;;;;;;;;;18.10;41.10;;;;;;472436;251;1540;-44
2021/04/06 02:34:26;;;;;;;;;;;18.00;41.10;;;;;;472817;252;1350;-44
2021/04/06 02:36:27;;;;;;;;;;;17.90;41.20;;;;;;472637;252;1060;-44
2021/04/06 02:38:29;;;;;;;;;;;17.90;41.30;;;;;;472752;252;1124;-44
2021/04/06 02:40:30;;;;;;;;;;;17.90;41.30;;;;;;472789;252;2201;-44
2021/04/06 02:42:31;;;;;;;;;;;17.90;41.40;;;;;;472802;252;1192;-44
2021/04/06 02:44:33;;;;;;;;;;;17.80;41.40;;;;;;472753;252;1200;-44
2021/04/06 02:46:35;;;;;;;;;;;17.80;41.50;;;;;;473109;252;1078;-44
2021/04/06 02:48:35;;;;;;;;;;;17.80;41.50;;;;;;472823;251;1522;-44
2021/04/06 02:50:36;;;;;;;;;;;17.70;41.50;;;;;;472755;252;1001;-44
2021/04/06 02:52:38;;;;;;;;;;;17.70;41.60;;;;;;472678;252;1076;-44
2021/04/06 02:54:39;;;;;;;;;;;17.70;41.70;;;;;;473028;252;1062;-44
2021/04/06 02:56:40;;;;;;;;;;;17.70;41.60;;;;;;472768;252;1342;-44
2021/04/06 02:58:42;;;;;;;;;;;17.60;41.70;;;;;;472845;252;1096;-44
2021/04/06 03:00:43;;;;;;;;;;;17.60;41.70;;;;;;472809;252;2139;-44
2021/04/06 03:02:44;;;;;;;;;;;17.60;41.70;;;;;;472667;252;1068;-44
2021/04/06 03:04:45;;;;;;;;;;;17.60;41.70;;;;;;472743;252;1091;-44
2021/04/06 03:06:47;;;;;;;;;;;17.60;41.80;;;;;;472814;252;1109;-44
2021/04/06 03:08:48;;;;;;;;;;;17.50;41.90;;;;;;472791;252;1081;-44
2021/04/06 03:10:49;;;;;;;;;;;17.50;41.90;;;;;;472895;252;1099;-44
2021/04/06 03:12:51;;;;;;;;;;;17.50;41.90;;;;;;472701;252;1169;-44
2021/04/06 03:14:52;;;;;;;;;;;17.40;41.90;;;;;;472801;252;1142;-44
2021/04/06 03:16:53;;;;;;;;;;;17.40;42.00;;;;;;472864;252;1312;-44
2021/04/06 03:18:54;;;;;;;;;;;17.40;41.90;;;;;;473117;252;1060;-44
2021/04/06 03:20:56;;;;;;;;;;;17.40;41.90;;;;;;472986;252;2146;-44
2021/04/06 03:22:57;;;;;;;;;;;17.40;42.00;;;;;;472654;252;1187;-44
2021/04/06 03:24:58;;;;;;;;;;;17.40;42.00;;;;;;472875;252;1090;-45
2021/04/06 03:27:00;;;;;;;;;;;17.30;42.00;;;;;;472682;252;1344;-44
2021/04/06 03:29:01;;;;;;;;;;;17.30;42.00;;;;;;472909;252;1132;-44
2021/04/06 03:31:02;;;;;;;;;;;17.50;41.80;;;;;;473035;252;1062;-45
2021/04/06 03:33:03;;;;;;;;;;;17.90;40.90;;;;;;472784;252;1063;-44
2021/04/06 03:35:05;;;;;;;;;;;18.30;39.90;;;;;;472931;252;1258;-45
2021/04/06 03:37:06;;;;;;;;;;;18.70;39.20;;;;;;472685;252;1125;-45
2021/04/06 03:39:07;;;;;;;;;;;18.90;38.60;;;;;;472717;252;1043;-45
2021/04/06 03:41:08;;;;;;;;;;;19.10;38.20;;;;;;472757;251;2197;-44
2021/04/06 03:43:10;;;;;;;;;;;19.30;37.90;;;;;;472701;252;1177;-45
2021/04/06 03:45:11;;;;;;;;;;;19.40;37.60;;;;;;472941;252;1128;-45
2021/04/06 03:47:12;;;;;;;;;;;19.50;37.40;;;;;;472706;252;1203;-44
2021/04/06 03:49:14;;;;;;;;;;;19.60;37.30;;;;;;473167;252;1097;-45
2021/04/06 03:51:15;;;;;;;;;;;19.60;37.20;;;;;;472724;252;979;-45
2021/04/06 03:53:16;;;;;;;;;;;19.70;37.10;;;;;;472906;252;1082;-45
2021/04/06 03:55:17;;;;;;;;;;;19.70;37.00;;;;;;472862;252;1318;-45
2021/04/06 03:57:19;;;;;;;;;;;19.80;36.90;;;;;;472601;252;1317;-45
2021/04/06 03:59:21;;;;;;;;;;;19.80;36.80;;;;;;472714;252;1134;-45
2021/04/06 04:01:21;;;;;;;;;;;19.90;36.70;;;;;;472674;251;2300;-44
2021/04/06 04:03:22;;;;;;;;;;;19.90;36.60;;;;;;472892;252;1059;-45
2021/04/06 04:05:24;;;;;;;;;;;20.00;36.50;;;;;;473013;252;1080;-44
2021/04/06 04:07:25;;;;;;;;;;;20.00;36.40;;;;;;472961;252;1226;-45
2021/04/06 04:09:26;;;;;;;;;;;20.00;36.40;;;;;;472671;252;1114;-44
2021/04/06 04:11:28;;;;;;;;;;;20.10;36.40;;;;;;472916;252;1068;-45
2021/04/06 04:13:29;;;;;;;;;;;20.10;36.30;;;;;;472815;252;1243;-44
2021/04/06 04:15:30;;;;;;;;;;;20.10;36.20;;;;;;460533;257;1135;-44
2021/04/06 04:17:31;;;;;;;;;;;20.20;36.20;;;;;;460713;259;1032;-44
2021/04/06 04:19:33;;;;;;;;;;;20.20;36.20;;;;;;455782;261;1080;-44
2021/04/06 04:21:34;;;;;;;;;;;20.20;36.10;;;;;;468909;250;2145;-44
2021/04/06 04:23:35;;;;;;;;;;;20.20;36.00;;;;;;461192;258;1076;-44
2021/04/06 04:25:37;;;;;;;;;;;20.20;36.00;;;;;;471792;252;1222;-44
2021/04/06 04:27:38;;;;;;;;;;;20.30;36.10;;;;;;468959;252;1097;-45
2021/04/06 04:29:39;;;;;;;;;;;20.30;36.00;;;;;;472637;252;1175;-44
2021/04/06 04:31:44;;;;;;;;;;;20.30;36.00;;;;;;464576;256;1324;-45
2021/04/06 04:33:43;;;;;;;;;;;20.30;35.90;;;;;;462871;257;1948;-44
2021/04/06 04:35:44;;;;;;;;;;;20.30;35.90;;;;;;463150;256;1187;-45
2021/04/06 04:37:45;;;;;;;;;;;20.40;35.90;;;;;;462749;257;1063;-45
2021/04/06 04:39:47;;;;;;;;;;;20.30;35.90;;;;;;457734;259;1074;-44
2021/04/06 04:41:48;;;;;;;;;;;20.40;35.90;;;;;;470168;252;2139;-45
2021/04/06 04:43:49;;;;;;;;;;;20.40;35.80;;;;;;463213;255;1129;-45
2021/04/06 04:45:50;;;;;;;;;;;20.40;35.70;;;;;;457185;258;1113;-44
2021/04/06 04:47:52;;;;;;;;;;;20.50;35.70;;;;;;463022;257;1262;-45
2021/04/06 04:49:53;;;;;;;;;;;20.40;35.70;;;;;;462852;257;1017;-45
2021/04/06 04:51:54;;;;;;;;;;;20.50;35.70;;;;;;462782;257;1085;-44
2021/04/06 04:53:56;;;;;;;;;;;20.50;35.60;;;;;;462934;255;1230;-44
2021/04/06 04:55:57;;;;;;;;;;;20.50;35.60;;;;;;462735;257;1135;-45
2021/04/06 04:57:58;;;;;;;;;;;20.60;35.60;;;;;;462746;257;1071;-44
2021/04/06 04:59:59;;;;;;;;;;;20.60;35.60;;;;;;462863;257;1141;-45
2021/04/06 05:02:01;;;;;;;;;;;20.60;35.60;;;;;;462795;257;2208;-45
2021/04/06 05:04:02;;;;;;;;;;;20.60;35.50;;;;;;462851;257;1091;-45
2021/04/06 05:06:03;;;;;;;;;;;20.60;35.50;;;;;;462767;257;1138;-45
2021/04/06 05:08:05;;;;;;;;;;;20.60;35.50;;;;;;462847;257;1043;-44
2021/04/06 05:10:06;;;;;;;;;;;20.60;35.50;;;;;;462777;257;1070;-45
2021/04/06 05:12:07;;;;;;;;;;;20.60;35.50;;;;;;462656;257;1233;-44
2021/04/06 05:14:08;;;;;;;;;;;20.60;35.50;;;;;;462817;257;1169;-45
2021/04/06 05:16:10;;;;;;;;;;;20.60;35.60;;;;;;462737;257;1256;-45
2021/04/06 05:18:11;;;;;;;;;;;20.60;35.50;;;;;;462888;257;1233;-45
2021/04/06 05:20:12;;;;;;;;;;;20.60;35.50;;;;;;462744;257;1102;-45
2021/04/06 05:22:13;;;;;;;;;;;20.60;35.50;;;;;;462703;257;2182;-45
2021/04/06 05:24:15;;;;;;;;;;;20.60;35.50;;;;;;462601;257;1133;-44
2021/04/06 05:26:16;;;;;;;;;;;20.60;35.50;;;;;;462573;257;1164;-44
2021/04/06 05:28:17;;;;;;;;;;;20.70;35.50;;;;;;462467;257;1152;-45
2021/04/06 05:30:19;;;;;;;;;;;20.60;35.50;;;;;;462515;257;1588;-45
2021/04/06 05:32:20;;;;;;;;;;;20.70;35.50;;;;;;462497;257;1117;-45
2021/04/06 05:34:21;;;;;;;;;;;20.70;35.50;;;;;;462625;257;1988;-45
2021/04/06 05:36:22;;;;;;;;;;;20.70;35.50;;;;;;462791;255;1377;-45
2021/04/06 05:38:24;;;;;;;;;;;20.70;35.40;;;;;;462640;257;1102;-45
2021/04/06 05:40:25;;;;;;;;;;;20.70;35.40;;;;;;462593;257;1046;-45
2021/04/06 05:42:28;;;;;;;;;;;20.60;35.40;;;;;;462569;257;2198;-44
2021/04/06 05:44:30;;;;;;;;;;;20.70;35.40;;;;;;462590;257;1338;-44
2021/04/06 05:46:31;;;;;;;;;;;20.70;35.40;;;;;;462635;257;1098;-44
2021/04/06 05:48:32;;;;;;;;;;;20.70;35.40;;;;;;462687;257;1072;-45
2021/04/06 05:50:33;;;;;;;;;;;20.70;35.30;;;;;;462848;257;1175;-45
2021/04/06 05:52:35;;;;;;;;;;;20.80;35.30;;;;;;462620;257;1096;-45
2021/04/06 05:54:36;;;;;;;;;;;20.70;35.20;;;;;;462486;257;1121;-45
2021/04/06 05:56:38;;;;;;;;;;;20.70;35.20;;;;;;462276;257;1366;-45
2021/04/06 05:58:39;;;;;;;;;;;20.80;35.20;;;;;;462351;257;1082;-45
2021/04/06 06:00:40;;;;;;;;;;;20.80;35.20;;;;;;462337;257;1235;-44
2021/04/06 06:02:42;;;;;;;;;;;20.80;35.20;;;;;;462348;257;2272;-45
2021/04/06 06:04:43;;;;;;;;;;;20.80;35.20;;;;;;462462;257;1089;-44
2021/04/06 06:06:44;;;;;;;;;;;20.80;35.10;;;;;;461875;258;1250;-44
2021/04/06 06:08:46;;;;;;;;;;;20.80;35.10;;;;;;462398;257;1145;-45
2021/04/06 06:10:47;;;;;;;;;;;20.80;35.00;;;;;;462427;257;1165;-45
2021/04/06 06:12:48;;;;;;;;;;;20.80;35.00;;;;;;462393;257;1212;-45
2021/04/06 06:14:51;;;;;;;;;;;20.80;35.00;;;;;;462256;257;1199;-45
2021/04/06 06:16:51;;;;;;;;;;;20.80;35.00;;;;;;462144;258;1785;-45
2021/04/06 06:18:52;;;;;;;;;;;20.80;35.00;;;;;;462159;257;1131;-44
2021/04/06 06:20:54;;;;;;;;;;;20.80;35.00;;;;;;462248;257;1362;-45
2021/04/06 06:22:55;;;;;;;;;;;20.90;35.00;;;;;;462182;257;2197;-44
2021/04/06 06:24:56;;;;;;;;;;;20.90;34.90;;;;;;462437;257;1108;-45
2021/04/06 06:26:58;;;;;;;;;;;20.90;34.90;;;;;;462334;257;1518;-45
2021/04/06 06:28:59;;;;;;;;;;;20.90;34.90;;;;;;462180;257;1716;-45
2021/04/06 06:31:00;;;;;;;;;;;20.90;34.90;;;;;;462466;254;1264;-44
2021/04/06 06:33:01;;;;;;;;;;;20.90;34.80;;;;;;462483;257;1220;-45
2021/04/06 06:35:03;;;;;;;;;;;21.00;34.90;;;;;;462539;257;1132;-45
2021/04/06 06:37:04;;;;;;;;;;;20.90;34.80;;;;;;462314;257;1322;-45
2021/04/06 06:39:05;;;;;;;;;;;20.90;34.80;;;;;;462393;257;1114;-45
2021/04/06 06:41:06;;;;;;;;;;;20.90;34.80;;;;;;462372;257;1234;-45
2021/04/06 06:43:08;;;;;;;;;;;20.90;34.80;;;;;;462153;257;2203;-45
2021/04/06 06:45:09;;;;;;;;;;;20.90;34.70;;;;;;462347;257;1206;-44
2021/04/06 06:47:10;;;;;;;;;;;20.90;34.70;;;;;;462351;257;1083;-45
2021/04/06 06:49:13;;;;;;;;;;;20.90;34.60;;;;;;462460;257;1180;-44
2021/04/06 06:51:13;;;;;;;;;;;20.90;34.60;;;;;;462227;257;1898;-45
2021/04/06 06:53:14;;;;;;;;;;;20.90;34.60;;;;;;462363;257;1129;-45
2021/04/06 06:55:16;;;;;;;;;;;21.00;34.60;;;;;;462421;257;1180;-44
2021/04/06 06:57:17;;;;;;;;;;;21.00;34.50;;;;;;462275;257;1106;-45
2021/04/06 06:59:18;;;;;;;;;;;21.00;34.50;;;;;;462312;257;1092;-45
2021/04/06 07:01:20;;;;;;;;;;;21.00;34.50;;;;;;462338;257;1377;-45
2021/04/06 07:03:21;;;;;;;;;;;21.00;34.50;;;;;;462190;257;2151;-45
2021/04/06 07:05:22;;;;;;;;;;;21.00;34.50;;;;;;462137;257;1194;-45
2021/04/06 07:07:23;;;;;;;;;;;21.00;34.50;;;;;;462184;257;1174;-45
2021/04/06 07:09:25;;;;;;;;;;;21.00;34.40;;;;;;462209;257;1231;-45
2021/04/06 07:11:26;;;;;;;;;;;21.00;34.40;;;;;;462223;257;1081;-45
2021/04/06 07:13:28;;;;;;;;;;;21.00;34.40;;;;;;462260;257;1203;-45
2021/04/06 07:15:30;;;;;;;;;;;21.00;34.40;;;;;;462235;257;1358;-45
2021/04/06 07:17:33;;;;;;;;;;;21.00;34.40;;;;;;462104;257;1150;-44
2021/04/06 07:19:32;;;;;;;;;;;21.00;34.40;;;;;;462012;257;1241;-45
2021/04/06 07:21:34;;;;;;;;;;;21.00;34.30;;;;;;462016;257;1212;-45
2021/04/06 07:23:35;;;;;;;;;;;21.00;34.30;;;;;;462157;257;2128;-45
2021/04/06 07:25:37;;;;;;;;;;;21.00;34.30;;;;;;462139;257;1213;-44
2021/04/06 07:27:38;;;;;;;;;;;21.00;34.30;;;;;;462072;257;1106;-45
2021/04/06 07:29:39;;;;;;;;;;;21.00;34.30;;;;;;462057;257;1114;-45
2021/04/06 07:31:41;;;;;;;;;;;21.00;34.30;;;;;;462039;257;1210;-44
2021/04/06 07:33:42;;;;;;;;;;;21.00;34.20;;;;;;462000;257;1130;-45
2021/04/06 07:35:43;;;;;;;;;;;21.00;34.20;;;;;;461988;257;1350;-44
2021/04/06 07:37:45;;;;;;;;;;;21.00;34.10;;;;;;462549;257;1054;-45
2021/04/06 07:39:48;;;;;;;;;;;21.10;34.20;;;;;;462541;257;931;-44
2021/04/06 07:41:47;;;;;;;;;;;21.00;34.20;;;;;;462343;258;1405;-45
2021/04/06 07:43:49;;;;;;;;;;;21.00;34.20;;;;;;462949;257;2204;-45
2021/04/06 07:45:50;;;;;;;;;;;21.10;34.10;;;;;;462282;257;1242;-45
2021/04/06 07:47:51;;;;;;;;;;;21.10;34.10;;;;;;462952;257;1098;-45
2021/04/06 07:49:52;;;;;;;;;;;21.10;34.10;;;;;;462494;257;893;-45
2021/04/06 07:51:54;;;;;;;;;;;21.10;34.10;;;;;;462787;257;1276;-44
2021/04/06 07:53:55;;;;;;;;;;;21.10;34.10;;;;;;462872;257;878;-45
2021/04/06 07:55:56;;;;;;;;;;;21.10;34.10;;;;;;462768;254;1274;-45
2021/04/06 07:57:57;;;;;;;;;;;21.10;34.00;;;;;;462899;257;896;-45
2021/04/06 07:59:59;;;;;;;;;;;21.10;33.90;;;;;;462582;257;1076;-45
2021/04/06 08:02:01;;;;;;;;;;;21.10;34.00;;;;;;462101;257;2212;-45
2021/04/06 08:04:02;;;;;;;;;;;21.20;34.00;;;;;;462868;257;2201;-45
2021/04/06 08:06:03;;;;;;;;;;;21.20;33.90;;;;;;462512;257;1069;-44
2021/04/06 08:08:04;;;;;;;;;;;21.20;33.90;;;;;;462922;257;907;-44
2021/04/06 08:10:05;;;;;;;;;;;21.20;33.80;;;;;;462963;257;989;-44
2021/04/06 08:12:07;;;;;;;;;;;21.20;33.80;;;;;;462198;257;1103;-45
2021/04/06 08:14:08;;;;;;;;;;;21.20;33.90;;;;;;462036;257;1143;-45
2021/04/06 08:16:09;;;;;;;;;;;21.20;33.80;;;;;;462182;257;1206;-45
2021/04/06 08:18:11;;;;;;;;;;;21.20;33.70;;;;;;462419;257;1097;-45
2021/04/06 08:20:12;;;;;;;;;;;21.30;33.70;;;;;;462041;257;1476;-45
2021/04/06 08:22:13;;;;;;;;;;;21.20;33.70;;;;;;462317;257;2159;-45
2021/04/06 08:24:14;;;;;;;;;;;21.30;33.80;;;;;;462503;257;896;-45
2021/04/06 08:26:16;;;;;;;;;;;21.30;33.80;;;;;;462844;257;1051;-44
2021/04/06 08:28:17;;;;;;;;;;;21.30;33.70;;;;;;462676;257;912;-45
2021/04/06 08:30:18;;;;;;;;;;;21.30;33.70;;;;;;462532;257;799;-45
2021/04/06 08:32:20;;;;;;;;;;;21.30;33.70;;;;;;462038;257;1395;-45
2021/04/06 08:34:21;;;;;;;;;;;21.30;33.60;;;;;;462307;257;790;-45
2021/04/06 08:36:22;;;;;;;;;;;21.30;33.70;;;;;;462273;257;1378;-45
2021/04/06 08:38:24;;;;;;;;;;;21.30;33.60;;;;;;462699;257;1068;-45
2021/04/06 08:40:25;;;;;;;;;;;21.30;33.60;;;;;;462624;257;1355;-45
2021/04/06 08:42:26;;;;;;;;;;;21.30;33.50;;;;;;462570;257;2201;-45
2021/04/06 08:44:27;;;;;;;;;;;21.40;33.60;;;;;;462632;257;870;-45
2021/04/06 08:46:29;;;;;;;;;;;21.40;33.50;;;;;;462465;257;1244;-45
2021/04/06 08:48:30;;;;;;;;;;;21.30;33.50;;;;;;462567;257;766;-45
2021/04/06 08:50:31;;;;;;;;;;;21.40;33.60;;;;;;462624;257;810;-45
2021/04/06 08:52:32;;;;;;;;;;;21.40;33.50;;;;;;462190;257;1012;-44
2021/04/06 08:54:34;;;;;;;;;;;21.40;33.50;;;;;;462281;257;802;-44
2021/04/06 08:56:35;;;;;;;;;;;21.40;33.50;;;;;;462089;257;1478;-45
2021/04/06 08:58:36;;;;;;;;;;;21.40;33.50;;;;;;462397;257;1076;-45
2021/04/06 09:00:38;;;;;;;;;;;21.40;33.50;;;;;;462803;257;844;-45
2021/04/06 09:02:39;;;;;;;;;;;21.40;33.60;;;;;;462253;257;2203;-45
2021/04/06 09:04:40;;;;;;;;;;;21.40;33.50;;;;;;462634;257;788;-45
2021/04/06 09:06:42;;;;;;;;;;;21.40;33.50;;;;;;462381;253;1400;-45
2021/04/06 09:08:43;;;;;;;;;;;21.30;33.50;;;;;;462615;257;703;-45
2021/04/06 09:10:44;;;;;;;;;;;21.40;33.60;;;;;;462563;257;769;-44
2021/04/06 09:12:46;;;;;;;;;;;21.40;33.60;;;;;;462712;257;1023;-45
2021/04/06 09:14:47;;;;;;;;;;;21.30;33.50;;;;;;462742;257;1905;-45
2021/04/06 09:16:48;;;;;;;;;;;21.40;33.50;;;;;;462628;257;1295;-45
2021/04/06 09:18:49;;;;;;;;;;;21.40;33.50;;;;;;461382;257;807;-45
2021/04/06 09:20:50;;;;;;;;;;;21.40;33.60;;;;;;462818;257;874;-44
2021/04/06 09:22:52;;;;;;;;;;;21.40;33.50;;;;;;462556;257;2194;-45
2021/04/06 09:24:53;;;;;;;;;;;21.30;33.50;;;;;;462130;257;809;-45
2021/04/06 09:26:54;;;;;;;;;;;21.30;33.50;;;;;;462226;257;839;-45
2021/04/06 09:28:56;;;;;;;;;;;21.30;33.50;;;;;;462641;257;759;-45
2021/04/06 09:30:57;;;;;;;;;;;21.30;33.60;;;;;;462239;257;779;-45
2021/04/06 09:32:59;;;;;;;;;;;21.30;33.50;;;;;;462374;257;1151;-44
2021/04/06 09:35:00;;;;;;;;;;;21.40;33.60;;;;;;462948;257;956;-45
2021/04/06 09:37:01;;;;;;;;;;;21.30;33.60;;;;;;462530;257;1096;-44
2021/04/06 09:39:03;;;;;;;;;;;21.30;33.60;;;;;;462940;257;937;-45
2021/04/06 09:41:04;;;;;;;;;;;21.30;33.60;;;;;;462893;257;1051;-45
2021/04/06 09:43:05;;;;;;;;;;;21.30;33.70;;;;;;462527;257;2183;-45
2021/04/06 09:45:06;;;;;;;;;;;21.30;33.60;;;;;;462995;257;1055;-45
2021/04/06 09:47:08;;;;;;;;;;;21.30;33.60;;;;;;462782;257;1131;-45
2021/04/06 09:49:10;;;;;;;;;;;21.30;33.60;;;;;;462522;257;931;-44
2021/04/06 09:51:10;;;;;;;;;;;21.30;33.60;;;;;;462433;257;2056;-45
2021/04/06 09:53:11;;;;;;;;;;;21.30;33.60;;;;;;462462;257;1082;-45
2021/04/06 09:55:13;;;;;;;;;;;21.30;33.50;;;;;;462737;257;899;-45
2021/04/06 09:57:14;;;;;;;;;;;21.30;33.60;;;;;;462296;257;1361;-45
2021/04/06 09:59:15;;;;;;;;;;;21.30;33.60;;;;;;463009;255;1206;-45
2021/04/06 10:01:17;;;;;;;;;;;21.40;33.60;;;;;;462904;257;1146;-45
2021/04/06 10:03:23;;;;;;;;;;;21.40;33.60;;;;;;462303;257;2194;-45
2021/04/06 10:05:20;;;;;;;;;;;21.40;33.50;;;;;;462023;258;2218;-45
2021/04/06 10:07:21;;;;;;;;;;;21.30;33.50;;;;;;462757;257;1096;-45
2021/04/06 10:09:22;;;;;;;;;;;21.30;33.50;;;;;;462451;257;883;-45
2021/04/06 10:11:23;;;;;;;;;;;21.30;33.50;;;;;;462745;257;1218;-45
2021/04/06 10:13:25;;;;;;;;;;;21.40;33.60;;;;;;462872;257;860;-45
2021/04/06 10:15:26;;;;;;;;;;;21.40;33.50;;;;;;462788;257;1239;-45
2021/04/06 10:17:27;;;;;;;;;;;21.30;33.40;;;;;;462746;257;1236;-45
2021/04/06 10:19:28;;;;;;;;;;;21.30;33.50;;;;;;462941;257;1100;-45
2021/04/06 10:21:30;;;;;;;;;;;21.40;33.60;;;;;;462477;257;1131;-45
2021/04/06 10:23:31;;;;;;;;;;;21.40;33.50;;;;;;462172;257;2191;-45
2021/04/06 10:25:32;;;;;;;;;;;21.40;33.50;;;;;;462098;257;1159;-45
2021/04/06 10:27:34;;;;;;;;;;;21.40;33.50;;;;;;461411;257;1145;-45
2021/04/06 10:29:35;;;;;;;;;;;21.40;33.50;;;;;;461994;257;1181;-45
2021/04/06 10:31:36;;;;;;;;;;;21.40;33.50;;;;;;462028;257;1109;-44
2021/04/06 10:33:38;;;;;;;;;;;21.40;33.50;;;;;;462026;257;1206;-45
2021/04/06 10:35:39;;;;;;;;;;;21.40;33.50;;;;;;462038;257;1254;-45
2021/04/06 10:37:41;;;;;;;;;;;21.40;33.50;;;;;;461989;257;1143;-45
2021/04/06 10:39:42;;;;;;;;;;;21.40;33.40;;;;;;462077;257;1151;-44
2021/04/06 10:41:43;;;;;;;;;;;21.40;33.40;;;;;;461982;257;1118;-44
2021/04/06 10:43:44;;;;;;;;;;;21.40;33.40;;;;;;462028;257;2207;-45
2021/04/06 10:45:46;;;;;;;;;;;21.40;33.40;;;;;;462025;257;1212;-45
2021/04/06 10:47:47;;;;;;;;;;;21.40;33.40;;;;;;462061;257;1209;-45
2021/04/06 10:49:48;;;;;;;;;;;21.50;33.40;;;;;;462080;257;1171;-45
2021/04/06 10:51:50;;;;;;;;;;;21.40;33.40;;;;;;462074;257;1231;-45
2021/04/06 10:53:51;;;;;;;;;;;21.40;33.40;;;;;;461493;257;1214;-45
2021/04/06 10:55:52;;;;;;;;;;;21.40;33.40;;;;;;461988;257;1106;-44
2021/04/06 10:57:54;;;;;;;;;;;21.40;33.40;;;;;;461984;257;1214;-44
2021/04/06 10:59:55;;;;;;;;;;;21.50;33.40;;;;;;461918;257;1109;-45
2021/04/06 11:01:56;;;;;;;;;;;21.40;33.40;;;;;;461894;257;1094;-45
2021/04/06 11:03:57;;;;;;;;;;;21.40;33.40;;;;;;462085;257;2198;-44
2021/04/06 11:05:59;;;;;;;;;;;21.50;33.50;;;;;;462071;257;1278;-45
2021/04/06 11:08:00;;;;;;;;;;;21.50;33.40;;;;;;461966;257;1208;-45
2021/04/06 11:10:01;;;;;;;;;;;21.50;33.40;;;;;;462099;257;1167;-45
2021/04/06 11:12:03;;;;;;;;;;;21.50;33.40;;;;;;462027;257;1340;-44
2021/04/06 11:14:04;;;;;;;;;;;21.40;33.40;;;;;;461979;257;1113;-44
2021/04/06 11:16:05;;;;;;;;;;;21.50;33.40;;;;;;461884;257;1300;-45
2021/04/06 11:18:06;;;;;;;;;;;21.40;33.40;;;;;;461942;257;1221;-45
2021/04/06 11:20:08;;;;;;;;;;;21.40;33.40;;;;;;461971;257;1185;-44
2021/04/06 11:22:11;;;;;;;;;;;21.40;33.30;;;;;;461944;257;1123;-45
2021/04/06 11:24:10;;;;;;;;;;;21.40;33.40;;;;;;461777;258;2252;-45
2021/04/06 11:26:14;;;;;;;;;;;21.50;33.40;;;;;;461953;257;1150;-44
2021/04/06 11:28:13;;;;;;;;;;;21.50;33.40;;;;;;461948;258;2054;-45
2021/04/06 11:30:15;;;;;;;;;;;21.50;33.40;;;;;;462007;257;1267;-45
2021/04/06 11:32:16;;;;;;;;;;;21.40;33.40;;;;;;461992;257;1157;-45
2021/04/06 11:34:18;;;;;;;;;;;21.40;33.40;;;;;;461878;257;1209;-45
2021/04/06 11:36:19;;;;;;;;;;;21.40;33.40;;;;;;461956;257;1113;-45
2021/04/06 11:38:20;;;;;;;;;;;21.40;33.50;;;;;;461950;257;1345;-45
2021/04/06 11:40:21;;;;;;;;;;;21.40;33.40;;;;;;462054;257;1104;-45
2021/04/06 11:42:23;;;;;;;;;;;21.40;33.40;;;;;;462070;257;1087;-45
2021/04/06 11:44:24;;;;;;;;;;;21.40;33.40;;;;;;461890;257;2202;-45
2021/04/06 11:46:26;;;;;;;;;;;21.40;33.40;;;;;;461905;257;1241;-45
2021/04/06 11:48:27;;;;;;;;;;;21.40;33.40;;;;;;461917;257;1229;-45
2021/04/06 11:50:28;;;;;;;;;;;21.40;33.40;;;;;;461858;257;1132;-45
2021/04/06 11:52:29;;;;;;;;;;;21.50;33.50;;;;;;461775;257;1165;-45
2021/04/06 11:54:31;;;;;;;;;;;21.40;33.40;;;;;;462074;257;1112;-45
2021/04/06 11:56:32;;;;;;;;;;;21.40;33.40;;;;;;461946;257;1137;-45